Date,TemperatureHighF,TemperatureAvgF,TemperatureLowF,DewpointHighF,DewpointAvgF,DewpointLowF,HumidityHigh,HumidityAvg,HumidityLow,PressureMaxIn,PressureMinIn,WindSpeedMaxMPH,WindSpeedAvgMPH,GustSpeedMaxMPH,PrecipitationSumIn
2013-4-1,46,35,27,42,25,14,97,69,40,29.90,29.50,18,8,0,0.01
2013-4-2,35,29,23,22,18,15,77,62,49,30.07,29.90,14,7,0,0.00
2013-4-3,40,31,26,20,17,13,77,59,34,30.33,30.07,14,6,0,0.00
2013-4-4,52,36,21,23,18,13,88,54,23,30.29,29.84,8,3,0,0.00
2013-4-5,46,37,29,28,22,14,74,54,41,30.10,29.81,14,4,0,0.00
2013-4-6,52,37,17,27,20,15,93,54,24,30.25,29.92,7,2,0,0.00
2013-4-7,65,54,43,46,35,22,72,48,30,29.97,29.63,23,9,0,0.00
2013-4-8,63,47,30,50,38,29,96,73,44,30.04,29.67,9,3,0,0.25
2013-4-9,62,50,44,50,45,42,99,84,52,30.06,29.71,14,4,0,0.79
2013-4-10,47,43,39,47,43,38,99,99,95,29.96,29.78,10,4,0,0.93
2013-4-11,39,35,32,38,33,31,99,96,81,30.04,29.82,11,6,0,0.50
2013-4-12,49,38,33,49,38,32,99,97,87,29.80,29.40,16,7,0,0.65
2013-4-13,44,40,37,38,36,34,93,87,72,29.87,29.70,15,8,0,0.00
2013-4-14,50,41,34,36,31,28,92,68,48,30.09,29.87,10,4,0,0.00
2013-4-15,75,57,38,50,42,29,77,58,39,30.07,29.88,10,5,0,0.00
2013-4-16,64,56,45,58,51,43,99,83,59,30.17,29.88,12,6,0,0.14
2013-4-17,60,47,32,42,36,32,99,67,44,30.30,30.10,13,4,0,0.00
2013-4-18,84,65,46,62,51,32,72,62,47,30.12,29.56,18,7,0,0.00
2013-4-19,73,56,41,60,48,31,93,73,61,29.67,29.27,20,10,0,0.06
2013-4-20,42,37,31,34,27,21,96,69,50,30.36,29.68,16,9,0,0.01
2013-4-21,48,37,22,28,24,20,97,61,43,30.62,30.36,9,3,0,0.00
2013-4-22,51,35,26,30,24,20,92,66,40,30.50,30.23,6,2,0,0.00
2013-4-23,72,55,36,39,34,26,79,46,28,30.23,29.83,8,3,0,0.00
2013-4-24,63,53,37,57,45,34,99,75,42,29.96,29.54,12,6,0,0.55
2013-4-25,57,43,30,40,35,28,99,77,37,30.25,29.98,12,5,0,0.03
2013-4-26,56,46,32,42,32,20,99,65,27,30.42,30.25,10,2,0,0.01
2013-4-27,76,55,32,43,34,28,88,52,22,30.35,30.12,7,2,0,0.00
2013-4-28,74,58,41,51,43,37,92,61,29,30.12,29.91,13,5,0,0.05
2013-4-29,67,59,51,55,52,47,94,77,66,29.95,29.87,8,4,0,0.09
2013-4-30,76,65,56,57,54,51,92,70,47,30.11,29.95,10,3,0,0.00